Time;durP1;ratioP1;P1;durP2;ratioP2;P2;SDS_P1;SDS_P2;PMS_P1;PMS_P2;Temp;Humidity;BMP_temperature;BMP_pressure;BME280_temperature;BME280_humidity;BME280_pressure;Samples;Min_cycle;Max_cycle;Signal;HPM_P1;HPM_P2
2022/08/23 00:00:49;;;;;;;21.00;4.47;;;21.80;99.90;;;;;;4995128;28;20215;-71
2022/08/23 00:03:16;;;;;;;15.50;4.77;;;21.80;99.90;;;;;;4994882;28;20653;-72
2022/08/23 00:05:43;;;;;;;22.67;4.33;;;21.80;99.90;;;;;;4988667;28;20745;-73
2022/08/23 00:08:12;;;;;;;16.00;4.47;;;21.70;99.90;;;;;;4990588;28;20273;-72
2022/08/23 00:10:38;;;;;;;20.17;4.50;;;21.70;99.90;;;;;;4994732;28;20210;-73
2022/08/23 00:13:05;;;;;;;10.60;3.70;;;21.60;99.90;;;;;;4994660;28;20243;-72
2022/08/23 00:15:32;;;;;;;18.43;4.40;;;21.60;99.90;;;;;;4991600;28;20290;-74
2022/08/23 00:18:00;;;;;;;11.10;4.20;;;21.60;99.90;;;;;;4994603;28;20732;-72
2022/08/23 00:20:27;;;;;;;15.93;4.00;;;21.60;99.90;;;;;;4995603;28;20218;-72
2022/08/23 00:22:54;;;;;;;11.10;3.87;;;21.60;99.90;;;;;;4995345;28;20222;-72
2022/08/23 00:25:22;;;;;;;13.10;4.03;;;21.60;99.90;;;;;;4984491;28;20211;-73
2022/08/23 00:27:49;;;;;;;19.30;4.77;;;21.50;99.90;;;;;;4975801;28;20623;-72
2022/08/23 00:30:16;;;;;;;14.23;3.80;;;21.50;99.90;;;;;;4975291;28;20243;-72
2022/08/23 00:32:44;;;;;;;14.70;4.63;;;21.50;99.90;;;;;;4975632;28;20782;-72
2022/08/23 00:35:13;;;;;;;15.67;4.60;;;21.50;99.90;;;;;;4982904;28;20239;-72
2022/08/23 00:37:40;;;;;;;16.83;5.13;;;21.50;99.90;;;;;;4992508;28;20223;-72
2022/08/23 00:40:10;;;;;;;19.07;4.90;;;21.50;99.90;;;;;;4994486;28;20203;-72
2022/08/23 00:48:22;;;;;;;21.60;4.70;;;21.50;99.90;;;;;;4994077;28;20203;-73
2022/08/23 00:50:57;;;;;;;17.53;4.70;;;21.40;99.90;;;;;;4994789;28;20211;-72
2022/08/23 00:53:27;;;;;;;17.00;4.13;;;21.40;99.90;;;;;;4995101;28;20631;-72
2022/08/23 00:55:58;;;;;;;21.67;4.77;;;21.40;99.90;;;;;;4991941;28;20258;-72
2022/08/23 00:58:27;;;;;;;12.07;3.60;;;21.40;99.90;;;;;;4994290;28;20298;-71
2022/08/23 01:00:56;;;;;;;12.97;3.97;;;21.40;99.90;;;;;;4994040;28;20246;-73
2022/08/23 01:03:26;;;;;;;16.10;3.90;;;21.40;99.90;;;;;;4994085;28;20303;-72
2022/08/23 01:06:01;;;;;;;13.73;3.57;;;21.30;99.90;;;;;;4992932;28;20237;-72
2022/08/23 01:08:30;;;;;;;15.47;4.40;;;21.30;99.90;;;;;;4994320;28;20242;-74
2022/08/23 01:11:02;;;;;;;15.23;3.90;;;21.30;99.90;;;;;;4993295;28;20210;-72
2022/08/23 01:13:37;;;;;;;18.10;4.17;;;21.30;99.90;;;;;;4993984;28;20196;-73
2022/08/23 01:16:10;;;;;;;10.53;3.80;;;21.30;99.90;;;;;;4987456;28;20222;-73
2022/08/23 01:18:38;;;;;;;13.73;4.13;;;21.30;99.90;;;;;;4975322;28;20231;-72
2022/08/23 01:21:12;;;;;;;14.67;3.63;;;21.30;99.90;;;;;;4974870;28;20291;-72
2022/08/23 01:23:43;;;;;;;14.30;3.73;;;21.30;99.90;;;;;;4974955;28;20202;-72
2022/08/23 01:26:13;;;;;;;12.87;3.97;;;21.30;99.90;;;;;;4988582;28;20630;-73
2022/08/23 01:28:40;;;;;;;15.20;3.70;;;21.30;99.90;;;;;;4992525;28;20566;-72
2022/08/23 01:31:08;;;;;;;14.50;3.77;;;21.30;99.90;;;;;;4993786;28;20215;-73
2022/08/23 01:33:36;;;;;;;10.60;3.70;;;21.30;99.90;;;;;;4994032;28;20265;-73
2022/08/23 01:36:04;;;;;;;12.53;3.60;;;21.30;99.90;;;;;;4994310;28;20578;-72
2022/08/23 01:38:31;;;;;;;12.93;3.90;;;21.20;99.90;;;;;;4993902;28;20242;-72
2022/08/23 01:41:00;;;;;;;12.77;3.60;;;21.20;99.90;;;;;;4992978;28;20300;-72
2022/08/23 01:43:27;;;;;;;15.30;3.77;;;21.20;99.90;;;;;;4993435;28;20682;-73
2022/08/23 01:45:54;;;;;;;11.63;3.60;;;21.20;99.90;;;;;;4993397;28;20304;-72
2022/08/23 01:48:22;;;;;;;10.60;3.77;;;21.20;99.90;;;;;;4993337;28;20291;-72
2022/08/23 01:50:49;;;;;;;11.20;3.27;;;21.10;99.90;;;;;;4992566;28;20303;-72
2022/08/23 01:53:16;;;;;;;12.97;4.07;;;21.10;99.90;;;;;;4993166;28;20211;-71
2022/08/23 01:55:43;;;;;;;10.13;3.60;;;21.10;99.90;;;;;;4993025;28;20296;-72
2022/08/23 01:58:12;;;;;;;11.43;4.30;;;21.10;99.90;;;;;;4993470;28;20693;-72
2022/08/23 02:00:41;;;;;;;11.70;5.07;;;21.20;99.90;;;;;;4992180;28;20213;-72
2022/08/23 02:03:10;;;;;;;13.17;5.10;;;21.10;99.90;;;;;;4993503;28;20218;-72
2022/08/23 02:05:37;;;;;;;13.10;4.40;;;21.10;99.90;;;;;;4993373;28;20229;-72
2022/08/23 02:10:46;;;;;;;8.30;4.10;;;21.10;99.90;;;;;;4992493;28;20574;-71
2022/08/23 02:13:14;;;;;;;14.87;4.30;;;21.10;99.90;;;;;;4993602;28;20231;-71
2022/08/23 02:15:43;;;;;;;9.53;3.63;;;21.10;99.90;;;;;;4993273;28;20216;-72
2022/08/23 02:18:10;;;;;;;12.43;3.70;;;21.20;99.90;;;;;;4993715;28;20760;-71
2022/08/23 02:20:39;;;;;;;10.00;3.83;;;21.20;99.90;;;;;;4992289;28;20210;-71
2022/08/23 02:23:06;;;;;;;14.10;4.27;;;21.20;99.90;;;;;;4992258;28;20209;-70
2022/08/23 02:25:33;;;;;;;13.27;4.07;;;21.20;99.90;;;;;;4993474;28;20203;-72
2022/08/23 02:28:02;;;;;;;13.63;3.83;;;21.20;99.90;;;;;;4995096;28;20239;-70
2022/08/23 02:30:30;;;;;;;9.60;3.80;;;21.20;99.90;;;;;;4996079;28;20301;-73
2022/08/23 02:32:57;;;;;;;15.23;4.20;;;21.20;99.90;;;;;;4996714;28;20299;-72
2022/08/23 02:35:24;;;;;;;11.80;4.20;;;21.10;99.90;;;;;;4996622;28;20213;-72
2022/08/23 02:37:51;;;;;;;15.80;4.60;;;21.00;99.90;;;;;;4996293;28;20223;-72
2022/08/23 02:40:19;;;;;;;14.93;4.23;;;21.10;99.90;;;;;;4996855;28;20243;-72
2022/08/23 02:42:46;;;;;;;9.53;3.67;;;21.00;99.90;;;;;;4996966;28;20219;-71
2022/08/23 02:45:13;;;;;;;11.77;3.77;;;21.00;99.90;;;;;;4997418;28;20262;-72
2022/08/23 02:47:42;;;;;;;14.03;4.13;;;21.00;99.90;;;;;;4995985;28;20286;-72
2022/08/23 02:50:09;;;;;;;7.90;3.40;;;21.00;99.90;;;;;;4995732;28;20207;-71
2022/08/23 02:52:36;;;;;;;20.23;4.00;;;21.00;99.90;;;;;;4996291;28;20647;-71
2022/08/23 02:55:04;;;;;;;12.90;4.37;;;21.00;99.90;;;;;;4996557;28;20290;-71
2022/08/23 02:57:31;;;;;;;12.00;3.83;;;21.00;99.90;;;;;;4995920;28;20316;-72
2022/08/23 02:59:57;;;;;;;10.53;3.73;;;21.00;99.90;;;;;;4996809;28;20233;-71
2022/08/23 03:02:24;;;;;;;12.97;3.67;;;21.00;99.90;;;;;;4996239;28;20250;-70
2022/08/23 03:04:53;;;;;;;10.13;3.60;;;21.00;99.90;;;;;;4996705;28;20314;-71
2022/08/23 03:07:20;;;;;;;10.83;3.70;;;21.00;99.90;;;;;;4995805;28;20684;-71
2022/08/23 03:09:47;;;;;;;11.97;3.63;;;21.00;99.90;;;;;;4995567;28;20247;-71
2022/08/23 03:12:14;;;;;;;8.53;3.50;;;21.00;99.90;;;;;;4995594;28;20207;-71
2022/08/23 03:14:41;;;;;;;15.37;3.57;;;21.00;99.90;;;;;;4996263;28;20293;-70
2022/08/23 03:17:08;;;;;;;14.80;3.60;;;21.00;99.90;;;;;;4995958;28;20213;-71
2022/08/23 03:19:35;;;;;;;18.93;4.00;;;21.00;99.90;;;;;;4993864;28;20550;-71
2022/08/23 03:22:03;;;;;;;9.93;3.70;;;21.00;99.90;;;;;;4995992;28;20265;-71
2022/08/23 03:24:30;;;;;;;16.63;3.70;;;21.00;99.90;;;;;;4995844;28;20219;-71
2022/08/23 03:26:57;;;;;;;14.17;3.53;;;21.00;99.90;;;;;;4995771;28;20298;-72
2022/08/23 03:29:24;;;;;;;15.37;3.90;;;21.00;99.90;;;;;;4995588;28;20207;-73
2022/08/23 03:31:51;;;;;;;17.00;4.33;;;21.00;99.90;;;;;;4995062;28;20298;-71
2022/08/23 03:34:18;;;;;;;9.10;3.77;;;21.00;99.90;;;;;;4995580;28;20216;-71
2022/08/23 03:36:45;;;;;;;14.03;3.93;;;21.00;99.90;;;;;;4995792;28;20734;-72
2022/08/23 03:39:13;;;;;;;13.00;3.73;;;21.00;99.90;;;;;;4995394;28;20322;-71
2022/08/23 03:41:40;;;;;;;14.57;3.70;;;21.00;99.90;;;;;;4996084;28;20293;-72
2022/08/23 03:44:07;;;;;;;19.33;4.70;;;21.00;99.90;;;;;;4996033;28;20212;-72
2022/08/23 03:46:35;;;;;;;14.20;4.47;;;21.10;99.90;;;;;;4996284;28;20218;-71
2022/08/23 03:49:02;;;;;;;17.33;4.20;;;21.10;99.90;;;;;;4995877;28;20635;-72
2022/08/23 03:51:31;;;;;;;22.50;5.83;;;21.00;99.90;;;;;;4995838;28;20616;-72
2022/08/23 03:53:58;;;;;;;12.73;4.57;;;21.00;99.90;;;;;;4995606;28;20295;-72
2022/08/23 03:56:29;;;;;;;16.03;3.93;;;21.10;99.90;;;;;;4995176;28;20211;-72
2022/08/23 03:58:57;;;;;;;15.93;4.10;;;21.10;99.90;;;;;;4993151;28;20230;-71
2022/08/23 04:01:25;;;;;;;29.90;4.30;;;21.10;99.90;;;;;;4995488;28;20214;-71
2022/08/23 04:03:52;;;;;;;23.47;4.53;;;21.10;99.90;;;;;;4992779;28;20641;-70
2022/08/23 04:06:19;;;;;;;17.97;4.10;;;21.10;99.90;;;;;;4995271;28;20208;-71
2022/08/23 04:08:46;;;;;;;13.57;4.13;;;21.20;99.90;;;;;;4995089;28;20199;-71
2022/08/23 04:11:14;;;;;;;27.60;4.37;;;21.20;99.90;;;;;;4995532;28;20222;-71
2022/08/23 04:13:42;;;;;;;15.73;4.00;;;21.20;99.90;;;;;;4994901;28;20212;-71
2022/08/23 04:16:09;;;;;;;18.50;4.33;;;21.10;99.90;;;;;;4995239;28;20305;-71
2022/08/23 04:18:36;;;;;;;21.43;4.50;;;21.10;99.90;;;;;;4994563;28;20229;-71
2022/08/23 04:21:08;;;;;;;14.33;3.70;;;21.10;99.90;;;;;;4993778;28;20214;-74
2022/08/23 04:23:35;;;;;;;15.07;4.20;;;21.20;99.90;;;;;;4994337;28;20646;-73
2022/08/23 04:26:03;;;;;;;15.27;4.10;;;21.10;99.90;;;;;;4994429;28;20300;-72
2022/08/23 04:28:29;;;;;;;24.17;4.50;;;21.10;99.90;;;;;;4995220;28;20682;-71
2022/08/23 04:30:59;;;;;;;23.20;4.60;;;21.10;99.90;;;;;;4995073;28;20236;-72
2022/08/23 04:33:26;;;;;;;21.27;4.70;;;21.10;99.90;;;;;;4994628;28;20553;-71
2022/08/23 04:35:53;;;;;;;25.87;4.87;;;21.20;99.90;;;;;;4994231;28;20713;-72
2022/08/23 04:38:20;;;;;;;22.43;4.37;;;21.30;99.90;;;;;;4989193;28;20250;-73
2022/08/23 04:43:31;;;;;;;22.43;4.57;;;21.50;99.90;;;;;;4989052;28;20210;-72
2022/08/23 04:45:59;;;;;;;15.63;4.23;;;21.60;99.90;;;;;;4993626;28;20203;-71
2022/08/23 04:48:26;;;;;;;16.57;3.87;;;21.70;99.90;;;;;;4994548;28;20204;-73
2022/08/23 04:50:53;;;;;;;22.47;4.80;;;21.80;99.90;;;;;;4986407;28;20208;-72
2022/08/23 04:53:20;;;;;;;24.27;4.43;;;21.90;99.90;;;;;;4983383;28;20278;-71
2022/08/23 04:55:48;;;;;;;24.30;4.60;;;22.00;99.90;;;;;;4986575;28;20214;-72
2022/08/23 04:58:15;;;;;;;18.20;4.53;;;22.10;99.90;;;;;;4990654;28;20247;-72
2022/08/23 05:00:42;;;;;;;20.10;4.40;;;22.20;99.90;;;;;;4985450;28;20648;-72
2022/08/23 05:03:11;;;;;;;22.60;4.47;;;22.20;99.90;;;;;;4983879;28;20753;-72
2022/08/23 05:05:38;;;;;;;18.90;4.50;;;22.30;99.90;;;;;;4984426;28;20211;-71
2022/08/23 05:08:04;;;;;;;20.60;4.93;;;22.30;99.90;;;;;;4984859;28;20231;-73
2022/08/23 05:10:31;;;;;;;20.10;4.57;;;22.30;99.90;;;;;;4993772;28;20713;-72
2022/08/23 05:12:58;;;;;;;26.90;4.17;;;22.40;99.90;;;;;;4993201;28;20203;-71
2022/08/23 05:15:25;;;;;;;22.10;4.80;;;22.30;99.90;;;;;;4993846;28;20302;-70
2022/08/23 05:17:52;;;;;;;27.30;4.77;;;22.40;99.90;;;;;;4994330;28;20223;-72
2022/08/23 05:20:21;;;;;;;21.27;4.73;;;22.40;99.90;;;;;;4989661;28;20274;-70
2022/08/23 05:22:49;;;;;;;19.47;4.87;;;22.40;99.90;;;;;;4993593;28;20209;-73
2022/08/23 05:25:16;;;;;;;27.57;4.83;;;22.40;99.90;;;;;;4982211;28;20211;-72
2022/08/23 05:27:43;;;;;;;32.03;6.03;;;22.40;99.90;;;;;;4985703;28;20235;-72
2022/08/23 05:30:11;;;;;;;31.20;5.47;;;22.40;99.90;;;;;;4994567;28;20557;-72
2022/08/23 05:32:38;;;;;;;23.87;5.50;;;22.40;99.90;;;;;;4994099;28;20557;-72
2022/08/23 05:35:06;;;;;;;27.40;5.90;;;22.40;99.90;;;;;;4987911;28;20204;-70
2022/08/23 05:37:34;;;;;;;18.00;4.53;;;22.40;99.90;;;;;;4991797;28;20259;-71
2022/08/23 05:40:01;;;;;;;26.33;4.73;;;22.50;99.90;;;;;;4992720;28;20324;-71
2022/08/23 05:42:28;;;;;;;26.07;5.83;;;22.50;99.90;;;;;;4992989;28;20267;-71
2022/08/23 05:44:55;;;;;;;24.23;5.17;;;22.50;99.90;;;;;;4992005;28;20429;-71
2022/08/23 05:47:25;;;;;;;25.30;5.13;;;22.60;99.90;;;;;;4993307;28;20216;-73
2022/08/23 05:49:52;;;;;;;27.43;5.73;;;22.70;99.90;;;;;;4994158;28;20229;-72
2022/08/23 05:52:19;;;;;;;28.40;5.17;;;22.70;99.90;;;;;;4990276;28;20641;-73
2022/08/23 05:54:47;;;;;;;25.83;5.30;;;22.70;99.90;;;;;;4994208;28;20715;-73
2022/08/23 05:57:14;;;;;;;42.27;5.97;;;22.70;99.90;;;;;;4993261;28;20211;-70
2022/08/23 05:59:41;;;;;;;45.93;7.17;;;22.80;99.90;;;;;;4993622;28;20223;-70
2022/08/23 06:02:08;;;;;;;38.27;5.90;;;22.80;99.90;;;;;;4990523;28;20291;-70
2022/08/23 06:04:35;;;;;;;40.00;6.27;;;22.90;99.90;;;;;;4993982;28;20264;-71
2022/08/23 06:07:02;;;;;;;48.87;6.70;;;22.90;99.90;;;;;;4993292;28;20738;-71
2022/08/23 06:09:28;;;;;;;39.60;6.40;;;23.00;99.90;;;;;;4993429;28;20300;-70
2022/08/23 06:11:58;;;;;;;45.13;6.80;;;23.10;99.90;;;;;;4986170;28;20200;-70
2022/08/23 06:14:25;;;;;;;44.53;6.53;;;23.10;99.90;;;;;;4992495;28;20714;-72
2022/08/23 06:16:52;;;;;;;33.63;6.03;;;23.20;99.90;;;;;;4993064;28;20621;-72
2022/08/23 06:19:19;;;;;;;47.63;6.60;;;23.30;99.90;;;;;;4990650;28;20658;-71
2022/08/23 06:21:46;;;;;;;45.90;6.37;;;23.30;99.90;;;;;;4992125;28;20242;-70
2022/08/23 06:24:13;;;;;;;42.30;6.87;;;23.30;99.90;;;;;;4989860;28;20209;-73
2022/08/23 06:26:44;;;;;;;43.60;6.57;;;23.40;99.90;;;;;;4992060;28;20229;-71
2022/08/23 06:29:13;;;;;;;35.13;5.80;;;23.50;99.90;;;;;;4991643;28;20216;-70
2022/08/23 06:31:47;;;;;;;53.70;7.70;;;23.50;99.90;;;;;;4991808;28;20292;-71
2022/08/23 06:34:22;;;;;;;54.07;7.60;;;23.60;99.90;;;;;;4988969;28;20258;-70
2022/08/23 06:36:51;;;;;;;39.70;6.20;;;23.60;99.90;;;;;;4991925;28;20280;-69
2022/08/23 06:39:19;;;;;;;53.60;8.30;;;23.70;99.90;;;;;;4992238;28;20250;-71
2022/08/23 06:41:48;;;;;;;42.30;6.57;;;23.80;99.90;;;;;;4991590;28;20229;-69
2022/08/23 06:44:17;;;;;;;45.87;7.57;;;23.80;99.90;;;;;;4993493;28;20299;-70
2022/08/23 06:46:45;;;;;;;47.47;6.43;;;23.80;99.90;;;;;;4993644;28;20589;-72
2022/08/23 06:49:12;;;;;;;61.17;8.63;;;23.80;99.90;;;;;;4993471;28;20208;-72
2022/08/23 06:51:41;;;;;;;49.40;6.97;;;23.80;99.90;;;;;;4991199;28;20208;-70
2022/08/23 06:54:11;;;;;;;37.80;6.63;;;23.80;99.90;;;;;;4993233;28;20573;-71
2022/08/23 06:56:40;;;;;;;43.80;7.67;;;23.90;99.90;;;;;;4993666;28;20304;-72
2022/08/23 06:59:08;;;;;;;39.17;7.00;;;23.90;99.90;;;;;;4992857;28;20720;-73
2022/08/23 07:01:41;;;;;;;41.20;7.60;;;23.90;99.90;;;;;;4988529;28;20297;-72
2022/08/23 07:04:10;;;;;;;39.77;6.90;;;24.00;99.90;;;;;;4984810;28;20313;-72
2022/08/23 07:06:37;;;;;;;34.37;7.30;;;24.10;99.90;;;;;;4974571;28;20214;-71
2022/08/23 07:09:06;;;;;;;52.77;9.43;;;24.20;99.90;;;;;;4991485;28;20218;-72
2022/08/23 07:11:34;;;;;;;44.97;8.10;;;24.30;99.90;;;;;;4978407;28;20213;-72
2022/08/23 07:14:04;;;;;;;52.33;6.93;;;24.30;99.90;;;;;;4974807;28;20256;-71
2022/08/23 07:16:33;;;;;;;55.90;7.63;;;24.40;99.90;;;;;;4976754;28;20278;-72
2022/08/23 07:19:02;;;;;;;91.13;9.90;;;24.40;99.90;;;;;;4976625;28;20237;-72
2022/08/23 07:21:29;;;;;;;50.37;7.13;;;24.40;99.90;;;;;;4991384;28;20210;-74
2022/08/23 07:23:57;;;;;;;67.77;9.57;;;24.50;99.90;;;;;;4992116;28;20252;-71
2022/08/23 07:26:24;;;;;;;52.20;9.43;;;24.50;99.90;;;;;;4992411;28;20235;-72
2022/08/23 07:28:51;;;;;;;139.37;13.97;;;24.60;99.90;;;;;;4996546;28;20292;-72
2022/08/23 07:31:21;;;;;;;66.83;8.53;;;24.60;99.90;;;;;;4996122;28;20293;-71
2022/08/23 07:33:48;;;;;;;55.70;7.47;;;24.70;99.90;;;;;;4996378;28;20597;-72
2022/08/23 07:36:19;;;;;;;59.53;7.43;;;24.80;99.90;;;;;;4995870;28;20271;-72
2022/08/23 07:38:46;;;;;;;76.03;10.10;;;24.90;99.90;;;;;;4995560;28;20723;-72
2022/08/23 07:41:14;;;;;;;90.23;12.30;;;24.90;99.90;;;;;;4995041;28;20327;-73
2022/08/23 07:43:42;;;;;;;83.53;9.30;;;24.90;99.90;;;;;;4976470;28;20214;-72
2022/08/23 07:46:10;;;;;;;64.47;9.60;;;24.90;99.90;;;;;;4976219;28;20210;-72
2022/08/23 07:48:38;;;;;;;56.80;8.60;;;24.80;99.90;;;;;;4977404;28;20299;-73
2022/08/23 07:51:06;;;;;;;98.73;11.63;;;24.90;99.90;;;;;;4996144;28;20213;-72
2022/08/23 07:53:35;;;;;;;56.10;8.60;;;25.00;99.90;;;;;;4996103;28;20250;-72
2022/08/23 07:56:05;;;;;;;44.53;8.13;;;25.00;99.90;;;;;;4995797;28;20248;-72
2022/08/23 07:58:32;;;;;;;96.30;11.43;;;25.10;99.90;;;;;;4994965;28;20191;-72
2022/08/23 08:01:10;;;;;;;57.08;9.02;;;25.10;99.90;;;;;;4990377;28;20322;-74
2022/08/23 08:03:38;;;;;;;71.72;9.90;;;25.20;99.90;;;;;;4996152;28;20197;-73
2022/08/23 08:06:08;;;;;;;69.25;9.38;;;25.20;99.90;;;;;;4994936;28;20218;-72
2022/08/23 08:08:36;;;;;;;67.90;10.00;;;25.30;99.90;;;;;;4994654;28;20213;-73
2022/08/23 08:11:03;;;;;;;282.27;26.00;;;25.30;99.90;;;;;;4994886;28;20643;-73
2022/08/23 08:13:31;;;;;;;80.60;10.45;;;25.40;99.90;;;;;;4994248;28;20213;-72
2022/08/23 08:15:58;;;;;;;57.03;9.50;;;25.40;99.90;;;;;;4995387;28;20210;-75
2022/08/23 08:18:25;;;;;;;75.17;9.97;;;25.40;99.90;;;;;;4995431;28;20230;-73
2022/08/23 08:20:51;;;;;;;57.70;8.52;;;25.50;99.90;;;;;;4990569;28;20313;-73
2022/08/23 08:23:18;;;;;;;76.07;10.90;;;25.60;99.90;;;;;;4985412;28;20279;-73
2022/08/23 08:25:47;;;;;;;67.88;9.10;;;25.60;99.90;;;;;;4985160;28;20751;-72
2022/08/23 08:28:14;;;;;;;75.10;9.35;;;25.60;99.90;;;;;;4994120;28;20608;-72
2022/08/23 08:30:41;;;;;;;88.05;11.85;;;25.80;99.90;;;;;;4995292;28;20239;-72
2022/08/23 08:33:08;;;;;;;68.13;9.65;;;25.90;99.90;;;;;;4994617;28;20634;-73
2022/08/23 08:35:34;;;;;;;220.98;23.33;;;26.00;99.90;;;;;;4990652;28;20206;-72
2022/08/23 08:38:02;;;;;;;72.00;9.75;;;26.10;99.90;;;;;;4990179;28;20297;-72
2022/08/23 08:40:34;;;;;;;93.53;11.60;;;26.10;99.90;;;;;;4995535;28;20327;-73
2022/08/23 08:43:22;;;;;;;107.10;12.25;;;26.10;99.90;;;;;;4994279;28;20276;-72
2022/08/23 08:46:05;;;;;;;73.25;9.02;;;26.20;99.90;;;;;;4993328;28;20292;-73
2022/08/23 08:48:40;;;;;;;94.30;10.70;;;26.30;99.90;;;;;;4990967;28;20756;-72
2022/08/23 08:51:19;;;;;;;96.70;12.30;;;26.40;99.90;;;;;;4993244;28;20236;-72
2022/08/23 08:53:50;;;;;;;88.43;11.63;;;26.40;99.90;;;;;;4994645;28;20714;-72
2022/08/23 08:56:23;;;;;;;85.68;11.25;;;26.40;99.90;;;;;;4991148;28;20617;-73
2022/08/23 08:58:55;;;;;;;68.75;10.50;;;26.50;99.90;;;;;;4974719;28;20237;-72
2022/08/23 09:01:24;;;;;;;70.85;9.63;;;26.50;99.90;;;;;;5002864;28;20232;-72
2022/08/23 09:03:52;;;;;;;61.50;9.82;;;26.60;99.90;;;;;;4994918;28;20221;-72
2022/08/23 09:06:23;;;;;;;68.85;8.95;;;26.60;99.90;;;;;;4995501;28;20229;-72
2022/08/23 09:09:03;;;;;;;78.80;10.77;;;26.70;99.90;;;;;;4994346;28;20785;-73
2022/08/23 09:11:44;;;;;;;79.28;11.38;;;26.70;99.90;;;;;;4994312;28;20743;-72
2022/08/23 09:14:43;;;;;;;57.28;9.10;;;26.60;99.90;;;;;;4991995;28;20240;-72
2022/08/23 09:17:20;;;;;;;64.15;8.88;;;26.70;99.90;;;;;;4990917;28;20241;-72
2022/08/23 09:19:51;;;;;;;63.42;9.32;;;26.60;99.90;;;;;;4989949;28;20219;-73
2022/08/23 09:22:25;;;;;;;60.60;10.73;;;26.70;99.90;;;;;;4994315;28;20420;-73
2022/08/23 09:24:52;;;;;;;63.03;10.13;;;26.70;99.90;;;;;;4994032;28;20617;-73
2022/08/23 09:27:19;;;;;;;53.13;8.43;;;26.70;99.90;;;;;;4993528;28;20210;-73
2022/08/23 09:29:55;;;;;;;67.75;8.77;;;26.70;99.90;;;;;;4993842;28;20729;-73
2022/08/23 09:32:29;;;;;;;78.38;9.48;;;26.70;99.90;;;;;;4994535;28;20585;-72
2022/08/23 09:35:11;;;;;;;54.53;8.18;;;26.80;99.90;;;;;;4986285;28;20305;-73
2022/08/23 09:38:00;;;;;;;63.65;8.15;;;26.80;99.90;;;;;;4994109;28;20243;-71
2022/08/23 09:40:32;;;;;;;55.53;7.45;;;26.80;99.90;;;;;;4994164;28;20269;-73
2022/08/23 09:43:12;;;;;;;57.90;7.50;;;26.90;99.90;;;;;;4993626;28;20659;-72
2022/08/23 09:45:58;;;;;;;52.92;7.43;;;26.90;99.90;;;;;;4993950;28;20188;-72
2022/08/23 09:48:38;;;;;;;51.08;7.18;;;27.00;99.90;;;;;;4997218;28;20253;-72
2022/08/23 09:51:19;;;;;;;47.72;7.28;;;27.10;99.90;;;;;;4993701;28;20640;-74
2022/08/23 09:53:50;;;;;;;53.65;6.90;;;27.20;99.90;;;;;;4993996;28;20279;-72
2022/08/23 09:56:24;;;;;;;57.85;8.25;;;27.30;99.90;;;;;;4994632;28;20208;-72
2022/08/23 09:58:52;;;;;;;56.47;7.80;;;27.40;99.90;;;;;;4993477;28;20298;-72
2022/08/23 10:01:24;;;;;;;52.90;6.72;;;27.50;99.70;;;;;;4990953;28;20235;-72
2022/08/23 10:04:10;;;;;;;49.83;6.30;;;27.60;99.30;;;;;;5008964;28;20287;-73
2022/08/23 10:06:38;;;;;;;39.08;6.55;;;27.70;99.60;;;;;;5007207;28;20267;-73
2022/08/23 10:09:07;;;;;;;41.63;5.45;;;27.70;99.90;;;;;;4986522;28;20201;-72
2022/08/23 10:11:38;;;;;;;33.60;5.18;;;27.80;99.20;;;;;;4991726;28;20573;-72
2022/08/23 10:14:05;;;;;;;27.40;5.57;;;27.80;98.60;;;;;;4993638;28;20206;-71
2022/08/23 10:16:46;;;;;;;23.77;5.05;;;27.90;98.20;;;;;;4993669;28;20313;-72
2022/08/23 10:19:22;;;;;;;45.80;6.47;;;28.10;97.40;;;;;;4994508;28;20233;-72
2022/08/23 10:21:57;;;;;;;27.13;4.65;;;28.20;96.60;;;;;;4994503;28;20256;-72
2022/08/23 10:24:38;;;;;;;57.20;7.15;;;28.30;97.70;;;;;;4993963;28;20276;-72
2022/08/23 10:30:07;;;;;;;28.40;5.10;;;28.40;96.30;;;;;;5001662;28;20201;-72
2022/08/23 10:32:47;;;;;;;24.48;3.88;;;28.40;95.80;;;;;;4995946;28;20292;-71
2022/08/23 10:35:29;;;;;;;23.48;4.32;;;28.30;96.00;;;;;;4988237;28;20281;-72
2022/08/23 10:38:34;;;;;;;27.25;4.97;;;28.20;96.10;;;;;;4995116;28;20196;-71
2022/08/23 10:41:11;;;;;;;43.50;6.05;;;28.30;96.60;;;;;;4992087;28;20226;-72
2022/08/23 10:43:46;;;;;;;27.92;4.45;;;28.40;97.60;;;;;;4993118;28;20206;-71
2022/08/23 10:46:13;;;;;;;67.43;8.20;;;28.50;96.90;;;;;;4997409;28;20300;-75
2022/08/23 10:48:50;;;;;;;38.47;5.38;;;28.60;96.10;;;;;;4995703;28;20244;-72
2022/08/23 10:51:19;;;;;;;30.35;5.18;;;28.60;94.90;;;;;;4997284;28;20206;-72
2022/08/23 10:53:58;;;;;;;22.10;5.05;;;28.60;95.20;;;;;;4998914;28;20206;-73
2022/08/23 10:56:26;;;;;;;19.52;5.03;;;28.40;95.00;;;;;;4998366;28;20205;-72
2022/08/23 10:58:56;;;;;;;70.63;8.95;;;28.20;95.20;;;;;;5000051;28;20304;-72
2022/08/23 11:01:26;;;;;;;19.67;4.18;;;28.10;95.60;;;;;;5005508;28;20268;-72
2022/08/23 11:04:02;;;;;;;15.55;3.72;;;28.00;95.30;;;;;;5000124;28;20263;-72
2022/08/23 11:06:45;;;;;;;32.97;4.47;;;27.90;95.40;;;;;;4985672;28;20202;-73
2022/08/23 11:09:46;;;;;;;69.10;8.93;;;27.90;96.20;;;;;;4998119;28;20202;-76
2022/08/23 11:12:20;;;;;;;16.67;3.50;;;27.80;96.30;;;;;;5003726;28;20191;-74
2022/08/23 11:14:58;;;;;;;28.65;4.93;;;27.80;95.80;;;;;;5015846;28;20284;-72
2022/08/23 11:17:29;;;;;;;21.05;5.68;;;27.80;96.90;;;;;;4998123;28;20229;-76
2022/08/23 11:20:00;;;;;;;14.75;4.40;;;27.80;96.90;;;;;;5001243;28;20250;-73
2022/08/23 11:22:29;;;;;;;17.05;4.28;;;27.80;96.10;;;;;;5010809;28;20227;-74
2022/08/23 11:25:00;;;;;;;17.73;3.60;;;27.80;96.10;;;;;;4998058;28;20245;-72
2022/08/23 11:27:36;;;;;;;26.08;4.60;;;27.80;96.70;;;;;;4996697;28;20224;-73
2022/08/23 11:30:37;;;;;;;21.33;4.22;;;27.80;95.70;;;;;;4996795;28;20189;-74
2022/08/23 11:33:15;;;;;;;18.23;4.70;;;27.80;95.40;;;;;;4990985;28;20212;-73
2022/08/23 11:35:47;;;;;;;20.83;4.32;;;27.80;95.40;;;;;;4996612;28;20338;-72
2022/08/23 11:38:15;;;;;;;14.57;3.30;;;27.80;95.60;;;;;;4994966;28;20237;-75
2022/08/23 11:41:17;;;;;;;14.45;3.17;;;27.80;95.30;;;;;;4996382;28;20279;-73
2022/08/23 11:43:46;;;;;;;14.13;3.15;;;27.80;95.20;;;;;;4993668;28;20296;-72
2022/08/23 11:46:29;;;;;;;19.35;4.03;;;27.80;95.10;;;;;;4997854;28;20255;-75
2022/08/23 11:49:16;;;;;;;23.33;4.20;;;27.80;95.20;;;;;;4997552;28;20855;-73
2022/08/23 11:51:57;;;;;;;15.25;3.20;;;27.80;95.50;;;;;;4998264;28;20233;-75
2022/08/23 11:54:40;;;;;;;24.02;3.75;;;27.80;95.50;;;;;;4992021;28;20602;-74
2022/08/23 11:57:33;;;;;;;19.88;4.57;;;27.90;95.00;;;;;;4996223;28;20217;-73
2022/08/23 12:00:16;;;;;;;14.75;3.47;;;27.90;95.00;;;;;;4984021;28;20217;-75
2022/08/23 12:02:54;;;;;;;8.95;3.00;;;27.90;96.20;;;;;;4990278;28;20609;-75
2022/08/23 12:05:31;;;;;;;37.42;4.50;;;28.00;95.10;;;;;;4975841;28;20231;-72
2022/08/23 12:08:40;;;;;;;11.52;3.40;;;28.10;95.40;;;;;;4975205;28;20198;-72
2022/08/23 12:11:10;;;;;;;24.13;4.43;;;28.20;94.60;;;;;;4956798;28;20749;-72
2022/08/23 12:13:57;;;;;;;44.60;4.88;;;28.30;94.70;;;;;;4976260;28;20301;-73
2022/08/23 12:16:37;;;;;;;16.77;3.22;;;28.50;94.10;;;;;;4938550;28;20208;-71
2022/08/23 12:19:17;;;;;;;11.75;3.00;;;28.70;94.40;;;;;;4976517;28;20205;-72
2022/08/23 12:21:48;;;;;;;7.68;3.10;;;28.90;93.90;;;;;;4976266;28;20214;-74
2022/08/23 12:24:22;;;;;;;68.68;6.90;;;29.00;93.50;;;;;;4976208;28;20259;-72
2022/08/23 12:27:06;;;;;;;56.42;5.45;;;29.20;91.40;;;;;;4975634;28;20195;-72
2022/08/23 12:29:51;;;;;;;20.83;2.90;;;29.30;90.20;;;;;;4975787;28;20211;-72
2022/08/23 12:32:23;;;;;;;11.70;2.80;;;29.30;89.70;;;;;;4976665;28;20192;-73
2022/08/23 12:35:00;;;;;;;56.13;5.40;;;29.40;89.80;;;;;;4976304;28;20290;-73
2022/08/23 12:37:36;;;;;;;27.75;3.03;;;29.50;90.00;;;;;;4975718;28;20199;-72
2022/08/23 12:40:08;;;;;;;15.95;2.55;;;29.60;90.80;;;;;;4975810;28;20334;-73
2022/08/23 12:42:39;;;;;;;34.92;4.75;;;29.70;90.50;;;;;;4975590;28;20279;-72
2022/08/23 12:45:13;;;;;;;21.33;3.10;;;29.70;89.60;;;;;;4975389;28;20192;-72
2022/08/23 12:47:42;;;;;;;18.77;2.65;;;29.80;87.30;;;;;;4975673;28;20228;-73
2022/08/23 12:50:20;;;;;;;10.00;2.65;;;29.80;89.20;;;;;;4976365;28;20208;-72
2022/08/23 12:53:01;;;;;;;19.10;3.30;;;29.90;89.70;;;;;;4975879;28;20196;-72
2022/08/23 12:55:32;;;;;;;29.55;3.97;;;29.90;88.50;;;;;;4975460;28;20223;-72
2022/08/23 12:58:01;;;;;;;16.38;3.10;;;29.90;88.60;;;;;;4976087;28;20294;-73
2022/08/23 13:00:31;;;;;;;21.83;4.95;;;29.90;88.80;;;;;;4975590;28;20326;-71
2022/08/23 13:03:02;;;;;;;16.08;3.70;;;29.90;89.60;;;;;;4974851;28;20235;-72
2022/08/23 13:05:37;;;;;;;32.47;4.38;;;29.80;88.00;;;;;;4975143;28;21085;-71
2022/08/23 13:08:08;;;;;;;14.45;3.47;;;29.80;88.30;;;;;;4975686;28;20319;-72